San Antonio, Texas
Traffic Map
Current Weather Conditions
San Antonio, Texas
Few Clouds
Few Clouds
33°
Feels Like: 38°
Wind Chill: 33° Ceiling: Unl
Heat Index: 38° Visibility: 10mi
Dew Point: 23° Wind: 2mph
Humidity: 55% Direction: ° ()
Pressure: 29.98in Gusts: 0mph
Raw Report DataKSKF 311758Z AUTO VRB02KT 10SM FEW200 33/23 A2998 RMK AO2 SLP144 T03300228 10330 20252 50003 $
Traffic Incident Summary
Active as of:
Severity:
Category:
InformationThere was an issue retrieving the traffic information for this location. Please try a different location or try again shortly.
Advertisements
Track Severe Weather on mobile